Time;durP1;ratioP1;P1;durP2;ratioP2;P2;SDS_P1;SDS_P2;PMS_P1;PMS_P2;Temp;Humidity;BMP_temperature;BMP_pressure;BME280_temperature;BME280_humidity;BME280_pressure;Samples;Min_cycle;Max_cycle;Signal;HPM_P1;HPM_P2
2023/10/31 00:00:37;;;;;;;7.30;4.72;;;;;;;14.32;83.67;99466.63;7393297;19;20348;-60
2023/10/31 00:03:05;;;;;;;8.15;5.63;;;;;;;14.27;83.68;99454.81;7394015;19;20537;-60
2023/10/31 00:05:33;;;;;;;8.02;5.13;;;;;;;14.26;83.99;99455.81;7393773;19;20022;-62
2023/10/31 00:08:00;;;;;;;8.80;5.30;;;;;;;14.26;83.69;99456.66;7391125;19;20023;-60
2023/10/31 00:10:29;;;;;;;8.13;5.25;;;;;;;14.28;83.79;99443.19;7392154;19;20043;-61
2023/10/31 00:13:01;;;;;;;9.30;5.32;;;;;;;14.32;83.81;99450.66;7391438;19;20014;-60
2023/10/31 00:15:30;;;;;;;7.45;5.32;;;;;;;14.34;83.70;99456.63;7392197;19;20018;-61
2023/10/31 00:17:58;;;;;;;10.10;5.22;;;;;;;14.32;83.64;99458.66;7393096;19;20017;-60
2023/10/31 00:20:26;;;;;;;7.78;5.30;;;;;;;14.24;84.13;99457.84;7392264;19;20039;-60
2023/10/31 00:22:53;;;;;;;7.55;5.13;;;;;;;14.20;84.14;99460.00;7393253;19;20554;-59
2023/10/31 00:25:21;;;;;;;8.02;5.20;;;;;;;14.22;84.08;99455.31;7392980;19;20345;-59
2023/10/31 00:27:50;;;;;;;8.25;5.65;;;;;;;14.24;84.05;99445.34;7392559;19;20014;-60
2023/10/31 00:30:21;;;;;;;9.48;6.38;;;;;;;14.24;84.18;99450.69;7390222;19;20034;-60
2023/10/31 00:32:48;;;;;;;8.88;5.82;;;;;;;14.23;83.93;99456.16;7393090;19;20019;-59
2023/10/31 00:35:16;;;;;;;9.43;6.05;;;;;;;14.22;84.04;99459.81;7391664;19;20022;-60
2023/10/31 00:37:44;;;;;;;8.75;5.05;;;;;;;14.24;84.01;99450.69;7392911;19;20015;-60
2023/10/31 00:40:12;;;;;;;7.80;5.78;;;;;;;14.24;83.94;99452.50;7391362;19;20033;-59
2023/10/31 00:42:41;;;;;;;9.32;6.32;;;;;;;14.21;83.99;99451.00;7392222;19;20014;-59
2023/10/31 00:45:09;;;;;;;7.50;5.32;;;;;;;14.26;84.08;99455.81;7392573;19;20042;-60
2023/10/31 00:47:37;;;;;;;8.38;5.82;;;;;;;14.30;83.72;99451.81;7391987;19;20018;-60
2023/10/31 00:50:05;;;;;;;7.53;5.30;;;;;;;14.28;84.13;99453.84;7390204;19;20456;-60
2023/10/31 00:52:32;;;;;;;8.05;5.05;;;;;;;14.31;83.73;99451.66;7392167;19;20457;-60
2023/10/31 00:55:00;;;;;;;8.95;5.22;;;;;;;14.32;83.74;99447.16;7390693;19;20018;-61
2023/10/31 00:57:29;;;;;;;7.68;5.25;;;;;;;14.31;83.94;99434.84;7392479;19;20030;-61
2023/10/31 00:59:57;;;;;;;7.28;4.97;;;;;;;14.34;83.92;99439.81;7389818;19;20022;-61
2023/10/31 01:02:25;;;;;;;8.82;5.93;;;;;;;14.25;84.12;99433.69;7392077;19;20512;-60
2023/10/31 01:04:52;;;;;;;6.88;5.00;;;;;;;14.24;84.51;99428.53;7392399;19;20050;-60
2023/10/31 01:07:20;;;;;;;7.30;4.80;;;;;;;14.21;84.33;99426.22;7391672;19;20031;-60
2023/10/31 01:09:47;;;;;;;6.97;5.20;;;;;;;14.26;84.20;99422.03;7388389;19;20043;-59
2023/10/31 01:12:15;;;;;;;7.25;5.22;;;;;;;14.28;84.22;99420.03;7391955;19;20018;-59
2023/10/31 01:14:43;;;;;;;7.07;4.78;;;;;;;14.28;84.10;99414.72;7392760;19;20014;-59
2023/10/31 01:17:10;;;;;;;7.00;4.95;;;;;;;14.30;84.13;99420.69;7392546;19;20022;-59
2023/10/31 01:19:38;;;;;;;8.65;5.18;;;;;;;14.30;84.01;99415.38;7389336;19;20503;-59
2023/10/31 01:22:07;;;;;;;8.32;5.55;;;;;;;14.31;84.00;99422.38;7391704;19;20026;-59
2023/10/31 01:24:35;;;;;;;8.23;5.50;;;;;;;14.30;84.15;99425.19;7390253;19;20032;-59
2023/10/31 01:27:02;;;;;;;7.68;5.28;;;;;;;14.26;84.32;99429.19;7391744;19;20019;-59
2023/10/31 01:29:30;;;;;;;7.03;5.13;;;;;;;14.25;84.30;99425.69;7388599;19;20030;-59
2023/10/31 01:31:57;;;;;;;8.00;5.18;;;;;;;14.27;84.49;99418.38;7391779;19;20047;-60
2023/10/31 01:34:31;;;;;;;7.07;4.78;;;;;;;14.21;84.57;99413.72;7391765;19;20019;-59
2023/10/31 01:36:59;;;;;;;7.70;4.90;;;;;;;14.25;84.27;99414.22;7390417;19;20018;-60
2023/10/31 01:39:26;;;;;;;6.63;4.72;;;;;;;14.22;84.57;99410.06;7389206;19;20021;-60
2023/10/31 01:41:54;;;;;;;6.93;4.68;;;;;;;14.25;84.41;99399.06;7391193;19;20082;-60
2023/10/31 01:44:22;;;;;;;7.10;5.00;;;;;;;14.27;84.43;99396.22;7390344;19;20372;-60
2023/10/31 01:46:50;;;;;;;6.40;4.60;;;;;;;14.27;84.52;99396.22;7391051;19;20018;-60
2023/10/31 01:49:17;;;;;;;6.60;4.70;;;;;;;14.28;84.42;99390.75;7389536;19;20380;-59
2023/10/31 01:51:46;;;;;;;5.93;4.15;;;;;;;14.29;84.26;99386.25;7389319;19;20043;-59
2023/10/31 01:54:14;;;;;;;6.65;4.03;;;;;;;14.27;84.30;99383.78;7388992;19;20035;-59
2023/10/31 01:56:43;;;;;;;5.20;3.78;;;;;;;14.27;84.34;99394.41;7396317;19;20014;-60
2023/10/31 01:59:10;;;;;;;5.82;4.05;;;;;;;14.27;84.23;99382.91;7396803;19;20026;-59
2023/10/31 02:01:41;;;;;;;5.75;4.07;;;;;;;14.34;84.03;99386.56;7396605;19;20543;-60
2023/10/31 02:04:09;;;;;;;6.78;4.53;;;;;;;14.30;83.92;99386.06;7396755;19;20082;-55
2023/10/31 02:06:37;;;;;;;6.93;4.68;;;;;;;14.31;84.20;99387.75;7398216;19;20114;-55
2023/10/31 02:09:05;;;;;;;5.60;4.20;;;;;;;14.35;84.06;99390.91;7393934;19;20037;-59
2023/10/31 02:11:32;;;;;;;6.55;4.57;;;;;;;14.32;84.11;99383.25;7396582;19;20094;-60
2023/10/31 02:14:01;;;;;;;6.93;4.63;;;;;;;14.28;84.35;99380.09;7396745;19;20082;-61
2023/10/31 02:16:29;;;;;;;7.25;4.38;;;;;;;14.29;84.41;99368.44;7396192;19;20022;-61
2023/10/31 02:18:56;;;;;;;8.90;4.65;;;;;;;14.33;84.32;99367.09;7396139;19;20037;-61
2023/10/31 02:21:25;;;;;;;6.13;4.38;;;;;;;14.36;84.23;99366.75;7396266;19;20074;-62
2023/10/31 02:24:00;;;;;;;5.82;4.38;;;;;;;14.41;84.06;99368.91;7397882;19;20037;-62
2023/10/31 02:26:33;;;;;;;7.57;4.93;;;;;;;14.42;83.86;99369.72;7396933;19;20031;-63
2023/10/31 02:29:02;;;;;;;5.83;4.30;;;;;;;14.32;84.20;99365.44;7395473;19;20512;-60
2023/10/31 02:31:30;;;;;;;9.45;5.50;;;;;;;14.30;84.37;99364.75;7395149;19;20018;-61
2023/10/31 02:33:58;;;;;;;7.55;5.13;;;;;;;14.33;84.18;99361.75;7397302;19;20351;-60
2023/10/31 02:36:25;;;;;;;7.50;5.38;;;;;;;14.33;84.28;99360.94;7395740;19;20014;-60
2023/10/31 02:38:53;;;;;;;7.30;5.00;;;;;;;14.34;84.32;99367.91;7393964;19;20074;-59
2023/10/31 02:41:20;;;;;;;7.72;5.32;;;;;;;14.31;84.27;99357.63;7395928;19;20492;-59
2023/10/31 02:43:48;;;;;;;8.10;6.00;;;;;;;14.24;84.62;99346.00;7396511;19;20018;-59
2023/10/31 02:46:16;;;;;;;7.97;5.40;;;;;;;14.31;84.56;99346.97;7397018;19;20350;-59
2023/10/31 02:48:43;;;;;;;7.75;5.80;;;;;;;14.35;84.19;99341.13;7394119;19;20042;-60
2023/10/31 02:51:11;;;;;;;7.88;5.38;;;;;;;14.32;84.28;99340.63;7395256;19;20063;-60
2023/10/31 02:53:38;;;;;;;9.27;6.65;;;;;;;14.26;84.53;99347.47;7396381;19;20376;-60
2023/10/31 02:56:06;;;;;;;7.75;5.47;;;;;;;14.30;84.75;99342.63;7396570;19;20078;-60
2023/10/31 02:58:34;;;;;;;8.10;5.50;;;;;;;14.35;84.26;99337.63;7395213;19;20032;-60
2023/10/31 03:01:02;;;;;;;7.50;5.53;;;;;;;14.35;84.27;99338.47;7395175;19;20010;-60
2023/10/31 03:03:29;;;;;;;9.63;6.70;;;;;;;14.35;84.26;99334.97;7396750;19;20022;-60
2023/10/31 03:05:57;;;;;;;7.55;5.55;;;;;;;14.34;84.60;99335.97;7395683;19;20022;-59
2023/10/31 03:08:25;;;;;;;8.95;6.43;;;;;;;14.30;84.68;99334.63;7395019;19;20397;-60
2023/10/31 03:10:52;;;;;;;8.93;6.05;;;;;;;14.25;84.84;99337.81;7394871;19;20487;-60
2023/10/31 03:13:20;;;;;;;9.63;6.28;;;;;;;14.28;84.95;99345.47;7396243;19;20014;-60
2023/10/31 03:15:47;;;;;;;9.93;7.22;;;;;;;14.32;84.50;99343.31;7395459;19;20506;-60
2023/10/31 03:18:15;;;;;;;9.10;6.50;;;;;;;14.33;84.53;99336.97;7394330;19;20508;-60
2023/10/31 03:20:45;;;;;;;10.40;7.03;;;;;;;14.34;84.64;99338.63;7394558;19;20632;-60
2023/10/31 03:23:13;;;;;;;8.98;6.38;;;;;;;14.35;84.29;99332.31;7395763;19;20029;-60
2023/10/31 03:25:41;;;;;;;10.85;7.82;;;;;;;14.30;84.64;99318.66;7395840;19;20984;-60
2023/10/31 03:28:19;;;;;;;9.65;6.65;;;;;;;14.46;84.08;99312.44;7393219;19;20475;-60
2023/10/31 03:30:47;;;;;;;12.00;7.90;;;;;;;14.42;84.23;99311.94;7394921;19;20018;-60
2023/10/31 03:33:18;;;;;;;11.52;7.32;;;;;;;14.45;84.08;99308.13;7395274;19;20042;-60
2023/10/31 03:35:46;;;;;;;11.02;8.48;;;;;;;14.44;84.15;99307.28;7394849;19;20022;-61
2023/10/31 03:38:14;;;;;;;11.18;7.90;;;;;;;14.39;84.28;99307.81;7394411;19;20137;-59
2023/10/31 03:40:42;;;;;;;12.70;8.68;;;;;;;14.32;84.55;99298.84;7393926;19;20010;-58
2023/10/31 03:43:10;;;;;;;11.38;8.25;;;;;;;14.39;84.46;99297.16;7395076;19;20022;-59
2023/10/31 03:45:37;;;;;;;11.82;7.88;;;;;;;14.42;84.41;99290.63;7394946;19;20014;-58
2023/10/31 03:48:05;;;;;;;11.48;8.55;;;;;;;14.45;84.05;99294.81;7393892;19;20031;-59
2023/10/31 03:50:33;;;;;;;11.57;8.60;;;;;;;14.45;84.11;99297.47;7391309;19;20022;-59
2023/10/31 03:53:00;;;;;;;12.25;8.93;;;;;;;14.43;84.28;99291.50;7394666;19;20035;-58
2023/10/31 03:55:28;;;;;;;13.35;9.45;;;;;;;14.43;84.39;99302.97;7394493;19;20074;-59
2023/10/31 03:57:56;;;;;;;11.90;9.00;;;;;;;14.42;84.33;99301.28;7394294;19;20027;-59
2023/10/31 04:00:23;;;;;;;11.75;9.13;;;;;;;14.45;84.48;99298.28;7393124;19;20025;-59
2023/10/31 04:02:52;;;;;;;12.93;9.55;;;;;;;14.47;84.22;99292.81;7394261;19;20017;-59
2023/10/31 04:05:19;;;;;;;12.15;9.30;;;;;;;14.47;84.42;99295.47;7394464;19;20851;-60
2023/10/31 04:07:47;;;;;;;12.65;9.35;;;;;;;14.47;84.44;99295.47;7392377;19;20019;-60
2023/10/31 04:10:19;;;;;;;13.07;9.57;;;;;;;14.53;84.21;99292.94;7391334;19;20022;-60
2023/10/31 04:12:46;;;;;;;13.50;9.95;;;;;;;14.46;84.84;99291.13;7394472;19;20480;-59
2023/10/31 04:15:14;;;;;;;12.93;9.27;;;;;;;14.30;85.08;99290.19;7393653;19;20010;-59
2023/10/31 04:17:42;;;;;;;15.00;10.55;;;;;;;14.18;85.80;99288.09;7390978;19;20028;-60
2023/10/31 04:20:10;;;;;;;11.40;8.50;;;;;;;14.22;86.03;99284.91;7392022;19;20019;-59
2023/10/31 04:22:37;;;;;;;12.60;9.50;;;;;;;14.23;85.58;99281.28;7393628;19;20424;-59
2023/10/31 04:25:05;;;;;;;11.70;9.23;;;;;;;14.27;85.44;99285.25;7393996;19;20010;-62
2023/10/31 04:27:33;;;;;;;11.98;8.65;;;;;;;14.34;85.16;99283.53;7393300;19;20014;-61
2023/10/31 04:30:01;;;;;;;11.43;8.73;;;;;;;14.35;85.19;99289.72;7389568;19;20090;-60
2023/10/31 04:32:29;;;;;;;11.40;8.48;;;;;;;14.36;85.26;99278.88;7393313;19;20024;-60
2023/10/31 04:34:57;;;;;;;11.85;8.38;;;;;;;14.41;85.06;99278.34;7393274;19;20019;-60
2023/10/31 04:37:25;;;;;;;11.43;8.32;;;;;;;14.44;84.88;99282.50;7393266;19;20356;-60
2023/10/31 04:39:52;;;;;;;10.93;8.18;;;;;;;14.41;85.22;99280.19;7389631;19;20035;-60
2023/10/31 04:42:20;;;;;;;11.73;8.98;;;;;;;14.42;85.11;99274.66;7391038;19;20040;-60
2023/10/31 04:44:48;;;;;;;10.45;8.45;;;;;;;14.45;84.76;99269.00;7393138;19;20846;-60
2023/10/31 04:47:15;;;;;;;10.57;7.53;;;;;;;14.45;84.75;99276.97;7392619;19;20087;-60
2023/10/31 04:49:43;;;;;;;11.18;8.68;;;;;;;14.43;84.87;99264.88;7390022;19;20021;-60
2023/10/31 04:52:12;;;;;;;11.63;8.20;;;;;;;14.43;84.65;99275.53;7392690;19;20051;-60
2023/10/31 04:54:40;;;;;;;10.05;7.85;;;;;;;14.43;84.90;99278.19;7392128;19;20014;-59
2023/10/31 04:57:07;;;;;;;12.00;8.85;;;;;;;14.42;84.69;99276.50;7391776;19;20019;-60
2023/10/31 04:59:35;;;;;;;10.95;8.27;;;;;;;14.44;84.63;99288.66;7390104;19;20491;-59
2023/10/31 05:02:03;;;;;;;11.32;8.25;;;;;;;14.45;84.41;99284.16;7392522;19;20039;-59
2023/10/31 05:04:30;;;;;;;13.30;9.38;;;;;;;14.41;84.35;99278.34;7391489;19;20406;-59
2023/10/31 05:06:58;;;;;;;12.48;9.65;;;;;;;14.32;84.48;99293.53;7392944;19;20019;-58
2023/10/31 05:09:26;;;;;;;14.18;9.73;;;;;;;14.33;84.31;99289.03;7391014;19;20018;-59
2023/10/31 05:11:54;;;;;;;12.65;10.32;;;;;;;14.34;84.05;99288.03;7392069;19;20043;-58
2023/10/31 05:14:22;;;;;;;12.55;10.48;;;;;;;14.34;83.78;99283.53;7394165;19;20021;-58
2023/10/31 05:16:50;;;;;;;12.65;10.40;;;;;;;14.32;83.65;99290.88;7392508;19;20042;-58
2023/10/31 05:19:17;;;;;;;13.15;9.93;;;;;;;14.35;83.55;99295.03;7389338;19;20018;-57
2023/10/31 05:21:45;;;;;;;13.77;10.18;;;;;;;14.37;83.39;99287.69;7390676;19;20026;-58
2023/10/31 05:24:13;;;;;;;13.13;10.57;;;;;;;14.30;83.41;99294.69;7390215;19;20086;-60
2023/10/31 05:26:42;;;;;;;12.98;10.48;;;;;;;14.30;83.45;99300.03;7391945;19;20015;-59
2023/10/31 05:29:11;;;;;;;12.07;9.32;;;;;;;14.30;83.03;99300.03;7390930;19;20043;-59
2023/10/31 05:31:39;;;;;;;13.05;10.20;;;;;;;14.24;83.27;99292.75;7398710;19;20025;-59
2023/10/31 05:34:07;;;;;;;11.27;9.00;;;;;;;14.24;82.96;99298.91;7397761;19;20027;-57
2023/10/31 05:36:34;;;;;;;12.85;9.90;;;;;;;14.29;82.55;99304.53;7399443;19;20093;-59
2023/10/31 05:39:02;;;;;;;13.88;9.25;;;;;;;14.27;82.37;99303.03;7396723;19;20025;-58
2023/10/31 05:41:29;;;;;;;11.98;8.82;;;;;;;14.15;82.07;99306.06;7397572;19;20017;-58
2023/10/31 05:43:57;;;;;;;10.43;7.90;;;;;;;14.05;82.52;99323.25;7397091;19;20022;-58
2023/10/31 05:46:26;;;;;;;7.25;5.18;;;;;;;13.95;82.16;99325.28;7398132;19;20018;-59
2023/10/31 05:48:54;;;;;;;4.70;2.97;;;;;;;13.79;81.69;99348.25;7396661;19;20018;-59
2023/10/31 05:51:21;;;;;;;2.85;1.95;;;;;;;13.51;81.61;99358.44;7397499;19;20035;-59
2023/10/31 05:53:49;;;;;;;2.33;1.40;;;;;;;13.44;81.52;99346.78;7398384;19;20035;-55
2023/10/31 05:56:17;;;;;;;2.90;1.00;;;;;;;13.34;81.54;99357.56;7398501;19;20018;-59
2023/10/31 05:58:45;;;;;;;1.33;0.60;;;;;;;13.32;81.18;99372.88;7396078;19;20019;-59
2023/10/31 06:01:12;;;;;;;4.20;0.60;;;;;;;13.22;81.20;99376.66;7397695;19;20268;-59
2023/10/31 06:03:44;;;;;;;0.80;0.50;;;;;;;13.25;80.78;99373.69;7396253;19;20010;-60
2023/10/31 06:06:12;;;;;;;1.52;0.60;;;;;;;13.06;80.95;99385.44;7396849;19;20027;-60
2023/10/31 06:08:41;;;;;;;2.38;0.55;;;;;;;13.06;80.95;99388.91;7397372;19;20015;-59
2023/10/31 06:11:12;;;;;;;0.85;0.30;;;;;;;13.03;81.00;99397.19;7393887;19;20500;-59
2023/10/31 06:13:40;;;;;;;0.85;0.40;;;;;;;12.96;81.00;99403.34;7396626;19;20022;-58
2023/10/31 06:16:08;;;;;;;2.08;0.40;;;;;;;13.02;80.80;99406.19;7397486;19;20018;-59
2023/10/31 06:18:38;;;;;;;0.95;0.30;;;;;;;12.98;80.83;99427.94;7396754;19;20022;-59
2023/10/31 06:21:08;;;;;;;2.55;0.80;;;;;;;12.90;81.43;99423.41;7396143;19;20082;-59
2023/10/31 06:23:39;;;;;;;2.50;0.73;;;;;;;12.89;81.29;99440.34;7397576;19;20108;-60
2023/10/31 06:26:07;;;;;;;1.92;0.60;;;;;;;12.87;81.21;99432.53;7397930;19;20014;-60
2023/10/31 06:28:36;;;;;;;1.10;0.43;;;;;;;12.72;81.33;99444.75;7396483;19;20043;-62
2023/10/31 06:31:11;;;;;;;1.05;0.63;;;;;;;12.74;81.53;99434.78;7393542;19;20014;-61
2023/10/31 06:33:39;;;;;;;0.65;0.35;;;;;;;12.72;81.13;99458.03;7397363;19;20014;-57
2023/10/31 06:36:07;;;;;;;1.20;0.57;;;;;;;12.74;81.10;99452.56;7396935;19;20493;-57
2023/10/31 06:38:35;;;;;;;2.15;0.75;;;;;;;12.81;80.78;99467.69;7394719;19;20011;-57
2023/10/31 06:41:03;;;;;;;3.25;0.50;;;;;;;12.81;80.37;99453.59;7394771;19;20034;-57
2023/10/31 06:43:31;;;;;;;3.67;0.80;;;;;;;12.81;80.32;99475.66;7397307;19;20090;-57
2023/10/31 06:46:04;;;;;;;2.65;0.60;;;;;;;12.79;79.70;99476.84;7397404;19;20050;-57
2023/10/31 06:48:31;;;;;;;3.22;0.70;;;;;;;12.75;80.12;99481.63;7396078;19;20025;-58
2023/10/31 06:50:59;;;;;;;4.53;0.70;;;;;;;12.79;80.07;99479.50;7393991;19;20023;-58
2023/10/31 06:53:27;;;;;;;2.40;0.85;;;;;;;12.74;79.55;99490.56;7396909;19;20019;-59
2023/10/31 06:55:54;;;;;;;1.50;0.50;;;;;;;12.72;79.07;99513.81;7397327;19;20463;-58
2023/10/31 06:58:22;;;;;;;2.13;0.70;;;;;;;12.64;79.40;99500.50;7396354;19;20074;-59
2023/10/31 07:00:49;;;;;;;2.60;0.60;;;;;;;12.65;79.59;99505.66;7393744;19;20089;-60
2023/10/31 07:03:17;;;;;;;1.65;0.55;;;;;;;12.65;79.22;99507.47;7396598;19;20094;-61
2023/10/31 07:05:44;;;;;;;1.98;0.50;;;;;;;12.62;79.29;99516.56;7395398;19;20023;-61
2023/10/31 07:08:12;;;;;;;1.80;0.70;;;;;;;12.60;79.37;99531.84;7394238;19;20022;-62
2023/10/31 07:10:40;;;;;;;2.15;0.60;;;;;;;12.69;79.26;99530.91;7392991;19;20018;-63
2023/10/31 07:13:07;;;;;;;2.13;0.70;;;;;;;12.62;79.17;99544.97;7394301;19;20368;-59
2023/10/31 07:15:38;;;;;;;8.68;0.80;;;;;;;12.53;79.95;99541.44;7396005;19;20014;-58
2023/10/31 07:18:07;;;;;;;1.70;0.70;;;;;;;12.49;80.34;99563.97;7394740;19;20128;-61
2023/10/31 07:20:35;;;;;;;3.00;0.75;;;;;;;12.49;80.08;99561.31;7394859;19;20014;-61
2023/10/31 07:23:02;;;;;;;1.88;0.73;;;;;;;12.58;80.18;99556.88;7395736;19;20019;-61
2023/10/31 07:25:30;;;;;;;2.25;0.70;;;;;;;12.56;79.97;99573.00;7395306;19;20078;-60
2023/10/31 07:27:58;;;;;;;2.75;0.60;;;;;;;12.62;79.74;99563.56;7394961;19;20412;-60
2023/10/31 07:30:25;;;;;;;3.00;0.60;;;;;;;12.62;79.97;99580.31;7385973;19;20022;-60
2023/10/31 07:32:53;;;;;;;3.15;0.60;;;;;;;12.57;80.04;99592.41;7393156;19;20078;-60
2023/10/31 07:35:21;;;;;;;2.88;0.75;;;;;;;12.59;80.20;99588.63;7395203;19;20027;-60
2023/10/31 07:37:48;;;;;;;2.53;0.50;;;;;;;12.62;79.75;99604.22;7394856;19;20382;-60
2023/10/31 07:40:16;;;;;;;1.05;0.52;;;;;;;12.52;80.11;99608.81;7393255;19;20015;-60
2023/10/31 07:42:44;;;;;;;2.63;0.60;;;;;;;12.55;80.30;99616.44;7392556;19;20021;-60
2023/10/31 07:45:11;;;;;;;2.17;0.50;;;;;;;12.52;79.74;99610.63;7395039;19;20014;-60
2023/10/31 07:47:39;;;;;;;1.38;0.73;;;;;;;12.64;79.30;99620.03;7392543;19;20018;-59
2023/10/31 07:50:07;;;;;;;3.33;0.70;;;;;;;12.58;79.36;99624.13;7390674;19;20022;-60
2023/10/31 07:52:34;;;;;;;2.58;0.55;;;;;;;12.60;79.33;99631.94;7392844;19;20018;-60
2023/10/31 07:55:02;;;;;;;0.82;0.50;;;;;;;12.63;79.40;99632.47;7393476;19;20518;-59
2023/10/31 07:57:30;;;;;;;1.45;0.50;;;;;;;12.55;79.47;99652.78;7392684;19;20014;-59
2023/10/31 07:59:57;;;;;;;3.40;0.73;;;;;;;12.52;79.19;99640.69;7390874;19;20495;-60
2023/10/31 08:02:25;;;;;;;2.58;0.77;;;;;;;12.54;79.44;99648.47;7393496;19;20150;-60
2023/10/31 08:04:56;;;;;;;1.58;0.55;;;;;;;12.64;79.08;99658.03;7392454;19;20484;-61
2023/10/31 08:07:24;;;;;;;2.35;0.60;;;;;;;12.75;79.19;99661.44;7393651;19;20018;-59
2023/10/31 08:09:51;;;;;;;2.92;0.43;;;;;;;12.77;78.66;99660.28;7390983;19;20017;-60
2023/10/31 08:12:19;;;;;;;1.85;0.55;;;;;;;12.72;78.94;99667.91;7393425;19;20025;-61
2023/10/31 08:14:46;;;;;;;2.35;0.63;;;;;;;12.63;78.88;99674.09;7393297;19;20014;-60
2023/10/31 08:17:14;;;;;;;1.85;0.40;;;;;;;12.73;78.56;99674.03;7392882;19;20510;-60
2023/10/31 08:19:42;;;;;;;2.75;0.73;;;;;;;12.68;78.89;99683.31;7390964;19;20089;-60
2023/10/31 08:22:09;;;;;;;1.55;0.40;;;;;;;12.72;78.89;99689.16;7393417;19;20014;-60
2023/10/31 08:24:38;;;;;;;1.35;0.50;;;;;;;12.77;78.99;99684.19;7392915;19;20088;-60
2023/10/31 08:27:07;;;;;;;3.83;0.80;;;;;;;12.75;78.97;99686.19;7391150;19;20487;-60
2023/10/31 08:29:34;;;;;;;1.35;0.70;;;;;;;12.75;79.13;99691.50;7390486;19;20022;-60
2023/10/31 08:32:02;;;;;;;1.10;0.73;;;;;;;12.75;79.35;99696.00;7389602;19;20094;-60
2023/10/31 08:34:30;;;;;;;1.90;0.50;;;;;;;12.80;79.43;99705.16;7391322;19;20010;-60
2023/10/31 08:36:59;;;;;;;2.90;0.63;;;;;;;12.78;79.15;99709.81;7391352;19;20022;-60
2023/10/31 08:39:26;;;;;;;1.90;0.60;;;;;;;12.81;79.29;99698.84;7391647;19;20046;-60
2023/10/31 08:41:56;;;;;;;3.53;0.63;;;;;;;12.89;79.38;99709.53;7392360;19;20018;-60
2023/10/31 08:44:24;;;;;;;1.48;0.57;;;;;;;13.07;78.74;99714.00;7392890;19;20353;-60
2023/10/31 08:46:51;;;;;;;1.02;0.50;;;;;;;13.08;78.67;99719.16;7392773;19;20074;-60
2023/10/31 08:49:19;;;;;;;1.10;0.40;;;;;;;13.10;78.84;99714.53;7391036;19;20437;-60
2023/10/31 08:51:47;;;;;;;1.95;0.68;;;;;;;13.18;79.14;99714.59;7389469;19;20109;-60
2023/10/31 08:54:14;;;;;;;1.55;0.55;;;;;;;13.17;79.07;99715.56;7391045;19;20018;-59
2023/10/31 08:56:42;;;;;;;0.98;0.40;;;;;;;13.14;79.45;99723.03;7391672;19;20018;-60
2023/10/31 08:59:10;;;;;;;1.40;0.43;;;;;;;13.14;79.17;99731.84;7390848;19;20018;-60
2023/10/31 09:01:37;;;;;;;1.55;0.47;;;;;;;13.21;79.05;99731.22;7391066;19;20495;-61
2023/10/31 09:04:05;;;;;;;0.90;0.50;;;;;;;13.15;79.02;99736.16;7391101;19;20018;-60
2023/10/31 09:06:33;;;;;;;0.75;0.30;;;;;;;13.21;78.99;99739.19;7391616;19;20018;-61
2023/10/31 09:09:00;;;;;;;1.35;0.30;;;;;;;13.14;79.02;99747.78;7391310;19;20018;-60
2023/10/31 09:11:28;;;;;;;1.48;0.47;;;;;;;13.15;79.25;99744.13;7389553;19;20022;-60
2023/10/31 09:13:56;;;;;;;1.65;0.40;;;;;;;13.13;79.43;99746.13;7391597;19;20378;-60
2023/10/31 09:16:27;;;;;;;0.93;0.40;;;;;;;13.11;79.25;99749.91;7390809;19;20026;-60
2023/10/31 09:18:54;;;;;;;2.63;0.43;;;;;;;13.04;79.58;99762.16;7389113;19;20019;-61
2023/10/31 09:21:22;;;;;;;0.60;0.52;;;;;;;13.06;80.00;99760.19;7388916;19;20019;-60
2023/10/31 09:23:49;;;;;;;1.05;0.50;;;;;;;13.03;79.81;99765.78;7391862;19;20026;-61
2023/10/31 09:26:17;;;;;;;1.30;0.43;;;;;;;13.10;79.60;99764.19;7391311;19;20018;-60
2023/10/31 09:28:49;;;;;;;3.35;0.60;;;;;;;13.14;79.54;99766.38;7390703;19;20026;-61
2023/10/31 09:31:17;;;;;;;1.33;0.47;;;;;;;13.20;79.40;99770.25;7389589;19;20030;-61
2023/10/31 09:33:46;;;;;;;2.17;0.70;;;;;;;13.14;79.75;99782.34;7391733;19;20019;-61
2023/10/31 09:36:14;;;;;;;2.55;0.88;;;;;;;13.21;79.42;99785.22;7391617;19;20353;-61
2023/10/31 09:38:42;;;;;;;2.42;0.80;;;;;;;13.12;79.99;99796.75;7390541;19;20023;-60
2023/10/31 09:41:09;;;;;;;1.52;0.45;;;;;;;13.18;79.38;99797.00;7390277;19;20029;-60
2023/10/31 09:43:37;;;;;;;1.15;0.55;;;;;;;13.19;79.55;99808.47;7391313;19;20011;-61
2023/10/31 09:46:05;;;;;;;1.80;0.75;;;;;;;13.28;79.41;99826.19;7389031;19;20047;-61
2023/10/31 09:48:33;;;;;;;3.08;0.70;;;;;;;13.28;79.68;99820.03;7390039;19;20103;-60
2023/10/31 09:51:02;;;;;;;2.53;0.65;;;;;;;13.26;79.59;99830.81;7388580;19;20022;-60
2023/10/31 09:53:33;;;;;;;2.90;0.80;;;;;;;13.31;79.58;99820.56;7390673;19;20043;-60
2023/10/31 09:56:01;;;;;;;0.93;0.60;;;;;;;13.33;79.54;99836.38;7388526;19;20030;-60
2023/10/31 09:58:29;;;;;;;2.53;0.63;;;;;;;13.33;79.85;99833.72;7389902;19;20015;-60
2023/10/31 10:00:57;;;;;;;1.17;0.60;;;;;;;13.31;79.94;99835.66;7389796;19;20023;-60
2023/10/31 10:03:26;;;;;;;2.65;0.90;;;;;;;13.18;80.34;99838.69;7388215;19;20033;-60
2023/10/31 10:05:55;;;;;;;2.83;0.80;;;;;;;13.24;80.08;99851.44;7390710;19;20039;-60
2023/10/31 10:08:23;;;;;;;1.75;0.80;;;;;;;13.24;80.11;99848.78;7389283;19;20022;-60
2023/10/31 10:10:51;;;;;;;2.10;0.88;;;;;;;13.27;80.07;99852.94;7387935;19;20094;-60
2023/10/31 10:13:21;;;;;;;2.67;0.93;;;;;;;13.39;80.12;99854.34;7389649;19;20025;-59
2023/10/31 10:15:53;;;;;;;2.92;0.90;;;;;;;13.44;79.94;99859.25;7390160;19;20018;-60
2023/10/31 10:18:31;;;;;;;2.58;0.80;;;;;;;13.49;80.18;99865.75;7396803;19;20026;-60
2023/10/31 10:21:02;;;;;;;4.22;1.10;;;;;;;13.51;79.87;99869.09;7395767;19;20515;-60
2023/10/31 10:23:30;;;;;;;5.35;1.33;;;;;;;13.58;79.39;99862.19;7397901;19;20019;-60
2023/10/31 10:26:03;;;;;;;3.10;1.20;;;;;;;13.64;79.04;99858.06;7397552;19;20018;-61
2023/10/31 10:28:31;;;;;;;2.15;1.10;;;;;;;13.74;78.88;99852.66;7396073;19;20092;-60
2023/10/31 10:30:59;;;;;;;2.83;1.25;;;;;;;13.76;79.17;99858.63;7394914;19;20027;-61
2023/10/31 10:33:27;;;;;;;1.98;0.88;;;;;;;13.82;78.98;99855.38;7397084;19;20022;-61
2023/10/31 10:35:55;;;;;;;5.30;1.40;;;;;;;13.84;78.83;99862.19;7396711;19;20018;-61
2023/10/31 10:38:23;;;;;;;2.75;1.10;;;;;;;13.87;78.95;99871.69;7396054;19;20475;-61
2023/10/31 10:40:55;;;;;;;3.75;1.30;;;;;;;13.90;78.27;99872.22;7394888;19;20030;-61
2023/10/31 10:43:24;;;;;;;4.15;1.10;;;;;;;13.84;78.62;99872.81;7396738;19;20011;-60
2023/10/31 10:45:57;;;;;;;4.13;1.20;;;;;;;13.83;78.86;99873.81;7396307;19;20046;-60
2023/10/31 10:48:26;;;;;;;3.20;1.13;;;;;;;13.78;78.83;99876.13;7394292;19;20423;-62
2023/10/31 10:51:05;;;;;;;3.78;1.05;;;;;;;13.82;78.86;99882.81;7397621;19;20019;-62
2023/10/31 10:53:57;;;;;;;4.15;1.20;;;;;;;13.80;78.49;99883.94;7399055;19;20018;-61
2023/10/31 10:56:38;;;;;;;3.60;1.33;;;;;;;13.69;79.11;99894.84;7399641;19;20085;-65
2023/10/31 10:59:16;;;;;;;2.88;1.13;;;;;;;13.67;79.03;99899.50;7395423;19;20037;-57
2023/10/31 11:01:46;;;;;;;3.22;1.10;;;;;;;13.68;78.80;99896.66;7395919;19;20475;-58
2023/10/31 11:04:14;;;;;;;5.88;1.05;;;;;;;13.70;78.62;99904.47;7397508;19;20017;-58
2023/10/31 11:06:42;;;;;;;6.97;1.48;;;;;;;13.71;78.97;99903.50;7397135;19;20349;-56
2023/10/31 11:09:10;;;;;;;2.65;0.98;;;;;;;13.60;79.33;99902.75;7394886;19;20550;-55
2023/10/31 11:11:39;;;;;;;2.10;1.15;;;;;;;13.56;79.71;99898.72;7393971;19;20031;-54
2023/10/31 11:14:08;;;;;;;3.45;1.02;;;;;;;13.54;79.81;99903.34;7396616;19;20010;-54
2023/10/31 11:17:09;;;;;;;5.18;1.20;;;;;;;13.70;79.77;99910.66;7396776;19;20483;-55
2023/10/31 11:19:37;;;;;;;3.97;1.20;;;;;;;13.60;79.95;99913.41;7392450;19;20022;-56
2023/10/31 11:22:06;;;;;;;4.03;1.33;;;;;;;13.62;79.92;99914.09;7394738;19;20492;-58
2023/10/31 11:24:37;;;;;;;4.03;1.30;;;;;;;13.69;79.84;99916.94;7395722;19;20022;-59
2023/10/31 11:27:06;;;;;;;4.32;1.70;;;;;;;13.71;79.83;99924.81;7395621;19;20348;-59
2023/10/31 11:29:36;;;;;;;3.38;1.45;;;;;;;13.80;79.74;99924.69;7391013;19;20402;-59
2023/10/31 11:32:07;;;;;;;2.50;1.20;;;;;;;13.89;79.50;99923.78;7394147;19;20043;-58
2023/10/31 11:34:39;;;;;;;3.03;1.40;;;;;;;13.95;79.02;99922.31;7395292;19;20024;-60
2023/10/31 11:37:29;;;;;;;3.10;1.30;;;;;;;14.04;78.88;99920.53;7393207;19;20028;-60